createdAt,value
2023-03-05T00:01:25.482Z,22.38
2023-03-05T00:03:54.550Z,18.98
2023-03-05T00:06:23.919Z,21.55
2023-03-05T00:08:55.201Z,20.50
2023-03-05T00:11:22.342Z,21.27
2023-03-05T00:13:53.054Z,20.48
2023-03-05T00:16:21.159Z,23.50
2023-03-05T00:18:48.704Z,22.13
2023-03-05T00:21:22.363Z,28.77
2023-03-05T00:23:50.696Z,26.15
2023-03-05T00:26:22.351Z,26.27
2023-03-05T00:28:50.376Z,27.33
2023-03-05T00:31:19.406Z,22.40
2023-03-05T00:33:46.589Z,25.65
2023-03-05T00:36:13.220Z,24.83
2023-03-05T00:38:39.878Z,28.00
2023-03-05T00:41:06.734Z,25.63
2023-03-05T00:43:33.405Z,31.40
2023-03-05T00:46:00.273Z,27.63
2023-03-05T00:48:27.066Z,21.05
2023-03-05T00:50:53.680Z,21.23
2023-03-05T00:53:20.532Z,25.38
2023-03-05T00:55:47.429Z,24.98
2023-03-05T00:58:14.873Z,26.08
2023-03-05T01:00:41.649Z,28.52
2023-03-05T01:03:08.479Z,23.67
2023-03-05T01:05:35.168Z,27.13
2023-03-05T01:08:02.172Z,23.85
2023-03-05T01:10:30.133Z,27.40
2023-03-05T01:12:57.614Z,29.65
2023-03-05T01:15:24.760Z,22.65
2023-03-05T01:17:51.471Z,28.60
2023-03-05T01:20:19.790Z,29.02
2023-03-05T01:22:46.632Z,26.20
2023-03-05T01:25:14.935Z,32.20
2023-03-05T01:27:41.617Z,27.25
2023-03-05T01:30:09.963Z,20.08
2023-03-05T01:32:37.119Z,26.25
2023-03-05T01:35:06.116Z,25.85
2023-03-05T01:37:32.796Z,25.75
2023-03-05T01:39:59.524Z,28.13
2023-03-05T01:42:26.224Z,26.33
2023-03-05T01:45:05.142Z,28.90
2023-03-05T01:47:31.914Z,27.65
2023-03-05T01:49:59.494Z,21.95
2023-03-05T01:52:29.671Z,27.63
2023-03-05T01:55:03.075Z,24.45
2023-03-05T01:57:52.576Z,29.30
2023-03-05T02:00:25.178Z,25.98
2023-03-05T02:02:52.872Z,28.02
2023-03-05T02:05:27.218Z,30.40
2023-03-05T02:08:03.708Z,23.45
2023-03-05T02:10:37.546Z,22.77
2023-03-05T02:13:10.569Z,21.77
2023-03-05T02:15:38.837Z,26.88
2023-03-05T02:18:07.472Z,32.22
2023-03-05T02:20:54.206Z,29.58
2023-03-05T02:23:22.261Z,23.85
2023-03-05T02:25:49.194Z,23.58
2023-03-05T02:28:26.222Z,24.52
2023-03-05T02:30:52.778Z,27.60
2023-03-05T02:33:20.433Z,21.67
2023-03-05T02:35:48.546Z,22.48
2023-03-05T02:38:18.043Z,21.98
2023-03-05T02:40:44.988Z,33.25
2023-03-05T02:43:13.117Z,27.90
2023-03-05T02:45:40.254Z,26.90
2023-03-05T02:48:07.491Z,26.95
2023-03-05T02:50:34.813Z,26.52
2023-03-05T02:53:02.297Z,25.63
2023-03-05T02:55:29.685Z,25.20
2023-03-05T02:57:56.614Z,28.27
2023-03-05T03:00:23.519Z,26.70
2023-03-05T03:02:50.357Z,29.65
2023-03-05T03:05:17.227Z,30.38
2023-03-05T03:07:43.824Z,34.28
2023-03-05T03:10:11.503Z,29.77
2023-03-05T03:12:39.958Z,30.40
2023-03-05T03:15:09.469Z,27.67
2023-03-05T03:17:37.232Z,21.92
2023-03-05T03:20:09.424Z,26.98
2023-03-05T03:22:37.128Z,28.02
2023-03-05T03:25:05.280Z,24.75
2023-03-05T03:27:32.109Z,27.33
2023-03-05T03:30:02.618Z,28.65
2023-03-05T03:32:29.520Z,27.90
2023-03-05T03:34:56.422Z,30.88
2023-03-05T03:37:23.148Z,27.58
2023-03-05T03:39:49.831Z,32.45
2023-03-05T03:42:21.052Z,24.60
2023-03-05T03:44:47.926Z,25.80
2023-03-05T03:47:14.834Z,35.08
2023-03-05T03:49:41.458Z,31.83
2023-03-05T03:52:08.744Z,30.42
2023-03-05T03:54:35.337Z,30.42
2023-03-05T03:57:01.903Z,27.92
2023-03-05T03:59:28.589Z,33.13
2023-03-05T04:01:55.363Z,32.90
2023-03-05T04:04:21.983Z,27.73
2023-03-05T04:06:48.811Z,29.40
2023-03-05T04:09:15.493Z,30.05
2023-03-05T04:11:42.023Z,23.63
2023-03-05T04:14:08.725Z,37.47
2023-03-05T04:16:35.417Z,30.08
2023-03-05T04:19:01.988Z,29.83
2023-03-05T04:21:29.751Z,25.52
2023-03-05T04:23:56.284Z,29.77
2023-03-05T04:26:23.010Z,27.05
2023-03-05T04:28:49.936Z,27.30
2023-03-05T04:31:17.267Z,30.73
2023-03-05T04:33:44.080Z,26.30
2023-03-05T04:36:10.704Z,28.55
2023-03-05T04:38:37.237Z,31.83
2023-03-05T04:41:04.226Z,29.52
2023-03-05T04:43:30.953Z,35.50
2023-03-05T04:45:57.790Z,29.25
2023-03-05T04:48:24.363Z,38.00
2023-03-05T04:50:51.361Z,25.23
2023-03-05T04:53:18.067Z,34.17
2023-03-05T04:55:44.685Z,30.75
2023-03-05T04:58:11.330Z,28.52
2023-03-05T05:00:39.069Z,39.15
2023-03-05T05:03:05.622Z,35.15
2023-03-05T05:05:32.589Z,27.05
2023-03-05T05:07:59.135Z,26.02
2023-03-05T05:10:26.624Z,35.03
2023-03-05T05:12:53.527Z,35.70
2023-03-05T05:15:20.842Z,31.10
2023-03-05T05:17:47.998Z,34.42
2023-03-05T05:20:16.489Z,29.63
2023-03-05T05:22:43.428Z,36.05
2023-03-05T05:25:10.500Z,35.67
2023-03-05T05:27:39.904Z,30.77
2023-03-05T05:30:07.794Z,32.72
2023-03-05T05:32:34.580Z,32.10
2023-03-05T05:35:01.130Z,28.20
2023-03-05T05:37:27.893Z,33.08
2023-03-05T05:39:54.938Z,33.03
2023-03-05T05:42:25.572Z,34.80
2023-03-05T05:44:52.276Z,35.70
2023-03-05T05:47:19.175Z,30.73
2023-03-05T05:49:45.902Z,32.47
2023-03-05T05:52:13.356Z,29.75
2023-03-05T05:54:40.192Z,31.73
2023-03-05T05:57:07.515Z,26.23
2023-03-05T05:59:34.259Z,31.60
2023-03-05T06:02:01.037Z,31.40
2023-03-05T06:04:27.972Z,28.73
2023-03-05T06:06:54.611Z,30.10
2023-03-05T06:09:21.198Z,30.08
2023-03-05T06:11:48.066Z,25.15
2023-03-05T06:14:14.719Z,30.42
2023-03-05T06:16:41.702Z,32.88
2023-03-05T06:19:11.986Z,28.35
2023-03-05T06:21:39.170Z,30.35
2023-03-05T06:24:06.659Z,30.90
2023-03-05T06:26:33.577Z,27.23
2023-03-05T06:29:00.425Z,30.10
2023-03-05T06:31:29.680Z,31.05
2023-03-05T06:34:01.129Z,26.42
2023-03-05T06:36:29.025Z,31.00
2023-03-05T06:38:56.674Z,30.80
2023-03-05T06:41:26.793Z,22.63
2023-03-05T06:43:54.613Z,29.55
2023-03-05T06:46:30.140Z,28.30
2023-03-05T06:48:59.432Z,29.10
2023-03-05T06:51:32.060Z,22.80
2023-03-05T06:54:04.534Z,27.50
2023-03-05T06:56:31.604Z,30.42
2023-03-05T06:58:59.490Z,28.00
2023-03-05T07:01:26.408Z,22.13
2023-03-05T07:03:55.269Z,26.67
2023-03-05T07:06:22.650Z,24.48
2023-03-05T07:08:50.022Z,29.70
2023-03-05T07:11:20.683Z,32.80
2023-03-05T07:13:48.445Z,20.92
2023-03-05T07:16:21.494Z,24.90
2023-03-05T07:18:48.926Z,22.27
2023-03-05T07:21:19.448Z,22.17
2023-03-05T07:23:46.203Z,19.42
2023-03-05T07:26:13.631Z,18.42
2023-03-05T07:28:40.501Z,16.52
2023-03-05T07:31:10.952Z,18.52
2023-03-05T07:33:37.535Z,21.45
2023-03-05T07:36:07.651Z,22.88
2023-03-05T07:38:34.735Z,27.20
2023-03-05T07:41:06.559Z,21.60
2023-03-05T07:43:33.379Z,20.90
2023-03-05T07:46:00.239Z,16.85
2023-03-05T07:48:26.946Z,17.58
2023-03-05T07:51:04.003Z,17.75
2023-03-05T07:53:31.100Z,29.30
2023-03-05T07:55:57.839Z,18.30
2023-03-05T07:58:25.014Z,16.00
2023-03-05T08:00:51.874Z,20.02
2023-03-05T08:03:18.887Z,22.23
2023-03-05T08:05:45.713Z,21.13
2023-03-05T08:08:12.867Z,17.65
2023-03-05T08:10:39.532Z,16.73
2023-03-05T08:13:06.182Z,17.20
2023-03-05T08:15:32.760Z,17.88
2023-03-05T08:18:00.011Z,20.67
2023-03-05T08:20:26.962Z,16.27
2023-03-05T08:22:53.750Z,19.25
2023-03-05T08:25:20.457Z,19.95
2023-03-05T08:27:48.634Z,15.25
2023-03-05T08:30:20.326Z,12.55
2023-03-05T08:35:15.126Z,16.08
2023-03-05T08:37:41.664Z,14.80
2023-03-05T08:40:09.265Z,19.25
2023-03-05T08:42:35.959Z,15.32
2023-03-05T08:45:02.704Z,17.30
2023-03-05T08:47:29.397Z,18.10
2023-03-05T08:49:57.211Z,18.05
2023-03-05T08:52:24.620Z,13.60
2023-03-05T08:54:51.184Z,20.75
2023-03-05T08:57:17.979Z,15.07
2023-03-05T08:59:44.663Z,14.13
2023-03-05T09:02:13.400Z,14.20
2023-03-05T09:04:40.174Z,16.92
2023-03-05T09:07:06.981Z,24.63
2023-03-05T09:09:34.142Z,17.35
2023-03-05T09:12:01.631Z,19.02
2023-03-05T09:14:29.356Z,16.92
2023-03-05T09:16:57.969Z,16.70
2023-03-05T09:19:25.727Z,17.92
2023-03-05T09:21:53.237Z,18.25
2023-03-05T09:24:21.384Z,17.27
2023-03-05T09:26:48.064Z,15.20
2023-03-05T09:29:15.013Z,19.20
2023-03-05T09:31:43.351Z,17.73
2023-03-05T09:34:11.274Z,18.13
2023-03-05T09:36:37.849Z,21.95
2023-03-05T09:39:07.055Z,16.33
2023-03-05T09:41:58.680Z,20.75
2023-03-05T09:44:34.830Z,15.05
2023-03-05T09:47:01.568Z,16.20
2023-03-05T09:49:57.969Z,16.38
2023-03-05T09:52:39.158Z,16.10
2023-03-05T09:55:13.721Z,20.15
2023-03-05T09:57:45.685Z,23.52
2023-03-05T10:00:33.406Z,17.38
2023-03-05T10:03:06.573Z,21.27
2023-03-05T10:05:49.247Z,17.20
2023-03-05T10:08:21.094Z,21.55
2023-03-05T10:10:51.765Z,18.65
2023-03-05T10:13:25.172Z,17.63
2023-03-05T10:16:06.151Z,21.83
2023-03-05T10:18:46.938Z,21.42
2023-03-05T10:21:16.791Z,21.77
2023-03-05T10:24:14.422Z,25.83
2023-03-05T10:27:20.664Z,15.55
2023-03-05T10:30:21.993Z,20.45
2023-03-05T10:33:18.379Z,23.93
2023-03-05T10:36:25.297Z,23.27
2023-03-05T10:38:55.058Z,21.05
2023-03-05T10:41:40.488Z,18.10
2023-03-05T10:44:18.427Z,19.30
2023-03-05T10:46:47.629Z,19.20
2023-03-05T10:49:25.295Z,17.58
2023-03-05T10:51:59.489Z,16.83
2023-03-05T10:54:33.008Z,17.40
2023-03-05T10:57:24.546Z,15.40
2023-03-05T11:00:05.705Z,25.50
2023-03-05T11:02:33.011Z,23.60
2023-03-05T11:04:59.981Z,18.05
2023-03-05T11:07:26.551Z,23.77
2023-03-05T11:10:04.327Z,19.48
2023-03-05T11:12:38.405Z,22.05
2023-03-05T11:15:14.286Z,20.17
2023-03-05T11:17:47.832Z,15.73
2023-03-05T11:20:26.368Z,18.65
2023-03-05T11:23:03.907Z,17.67
2023-03-05T11:25:32.666Z,17.05
2023-03-05T11:28:02.170Z,18.92
2023-03-05T11:30:36.718Z,16.52
2023-03-05T11:33:10.488Z,14.88
2023-03-05T11:35:43.384Z,15.23
2023-03-05T11:38:23.706Z,20.73
2023-03-05T11:40:52.231Z,16.30
2023-03-05T11:43:21.177Z,17.33
2023-03-05T11:45:51.746Z,13.85
2023-03-05T11:48:25.378Z,14.77
2023-03-05T11:50:57.637Z,16.25
2023-03-05T11:53:29.170Z,15.00
2023-03-05T11:56:19.222Z,20.83
2023-03-05T11:59:14.517Z,12.77
2023-03-05T12:01:46.262Z,17.27
2023-03-05T12:07:02.406Z,16.35
2023-03-05T12:09:44.383Z,24.55
2023-03-05T12:12:36.058Z,10.48
2023-03-05T12:17:44.888Z,13.43
2023-03-05T12:20:28.177Z,10.40
2023-03-05T12:22:57.068Z,12.88
2023-03-05T12:25:47.244Z,14.88
2023-03-05T12:28:34.086Z,13.98
2023-03-05T12:31:04.770Z,10.70
2023-03-05T12:33:43.458Z,13.80
2023-03-05T12:36:22.328Z,11.48
2023-03-05T12:38:56.799Z,7.90
2023-03-05T12:41:23.481Z,13.25
2023-03-05T12:44:05.058Z,9.05
2023-03-05T12:46:36.123Z,7.88
2023-03-05T12:49:18.027Z,8.38
2023-03-05T12:54:36.031Z,8.30
2023-03-05T12:57:24.824Z,7.03
2023-03-05T12:59:59.556Z,8.00
2023-03-05T13:02:34.779Z,8.48
2023-03-05T13:05:07.635Z,8.80
2023-03-05T13:07:34.336Z,9.40
2023-03-05T13:10:00.978Z,6.47
2023-03-05T13:12:29.842Z,8.77
2023-03-05T13:15:03.713Z,11.40
2023-03-05T13:17:33.849Z,9.20
2023-03-05T13:20:02.737Z,8.43
2023-03-05T13:22:29.397Z,12.23
2023-03-05T13:25:20.677Z,9.32
2023-03-05T13:27:47.423Z,6.68
2023-03-05T13:30:27.094Z,9.88
2023-03-05T13:33:02.799Z,9.75
2023-03-05T13:35:33.988Z,11.45
2023-03-05T13:38:02.217Z,7.97
2023-03-05T13:40:32.215Z,8.95
2023-03-05T13:43:13.598Z,13.77
2023-03-05T13:45:40.431Z,11.73
2023-03-05T13:48:07.508Z,9.77
2023-03-05T13:50:37.359Z,12.88
2023-03-05T13:53:16.194Z,9.10
2023-03-05T13:55:43.952Z,16.50
2023-03-05T13:58:48.186Z,10.23
2023-03-05T14:01:30.051Z,9.40
2023-03-05T14:04:03.445Z,8.65
2023-03-05T14:06:31.011Z,10.55
2023-03-05T14:09:19.407Z,10.13
2023-03-05T14:11:54.941Z,7.70
2023-03-05T14:14:23.528Z,9.25
2023-03-05T14:16:50.349Z,13.68
2023-03-05T14:19:36.139Z,15.45
2023-03-05T14:22:04.639Z,9.38
2023-03-05T14:24:32.367Z,11.50
2023-03-05T14:27:08.711Z,9.85
2023-03-05T14:29:36.264Z,9.45
2023-03-05T14:32:08.096Z,10.65
2023-03-05T14:37:21.581Z,11.25
2023-03-05T14:39:54.810Z,10.48
2023-03-05T14:42:38.368Z,10.50
2023-03-05T14:45:26.637Z,11.02
2023-03-05T14:47:55.637Z,10.23
2023-03-05T14:50:26.537Z,8.50
2023-03-05T14:53:00.372Z,12.95
2023-03-05T14:55:31.605Z,7.38
2023-03-05T14:58:04.442Z,8.90
2023-03-05T15:00:31.780Z,8.30
2023-03-05T15:02:58.551Z,11.88
2023-03-05T15:05:25.325Z,10.75
2023-03-05T15:07:52.535Z,10.90
2023-03-05T15:10:23.206Z,13.90
2023-03-05T15:12:51.177Z,14.57
2023-03-05T15:15:19.854Z,9.82
2023-03-05T15:17:47.941Z,10.25
2023-03-05T15:20:22.914Z,9.38
2023-03-05T15:22:49.568Z,12.45
2023-03-05T15:25:16.897Z,13.45
2023-03-05T15:27:43.681Z,11.93
2023-03-05T15:30:21.268Z,10.20
2023-03-05T15:32:48.150Z,11.48
2023-03-05T15:35:14.790Z,11.20
2023-03-05T15:37:41.577Z,10.30
2023-03-05T15:40:09.111Z,10.60
2023-03-05T15:42:35.693Z,12.45
2023-03-05T15:45:02.753Z,14.35
2023-03-05T15:47:31.192Z,10.60
2023-03-05T15:49:59.693Z,12.75
2023-03-05T15:52:26.481Z,15.20
2023-03-05T15:54:53.101Z,13.73
2023-03-05T15:57:23.690Z,12.82
2023-03-05T15:59:50.502Z,12.33
2023-03-05T16:02:17.391Z,16.55
2023-03-05T16:04:44.450Z,12.60
2023-03-05T16:07:13.590Z,17.45
2023-03-05T16:09:48.287Z,15.32
2023-03-05T16:12:20.063Z,8.88
2023-03-05T16:14:49.749Z,10.68
2023-03-05T16:17:19.883Z,13.05
2023-03-05T16:19:49.709Z,11.05
2023-03-05T16:22:16.294Z,13.02
2023-03-05T16:24:43.093Z,11.55
2023-03-05T16:27:10.572Z,12.05
2023-03-05T16:29:37.262Z,8.13
2023-03-05T16:32:07.659Z,11.15
2023-03-05T16:34:34.849Z,12.45
2023-03-05T16:37:04.378Z,9.55
2023-03-05T16:39:31.142Z,10.07
2023-03-05T16:41:57.948Z,11.82
2023-03-05T16:44:24.916Z,10.57
2023-03-05T16:46:53.977Z,13.30
2023-03-05T16:49:21.310Z,6.93
2023-03-05T16:51:48.653Z,10.70
2023-03-05T16:54:15.394Z,10.82
2023-03-05T16:56:42.180Z,8.02
2023-03-05T16:59:08.810Z,9.38
2023-03-05T17:01:35.851Z,9.02
2023-03-05T17:04:03.015Z,9.23
2023-03-05T17:06:31.883Z,9.88
2023-03-05T17:08:59.230Z,9.27
2023-03-05T17:11:26.294Z,12.52
2023-03-05T17:13:53.228Z,10.25
2023-03-05T17:16:20.998Z,9.65
2023-03-05T17:18:48.374Z,9.00
2023-03-05T17:21:16.079Z,9.23
2023-03-05T17:23:42.922Z,9.25
2023-03-05T17:26:12.453Z,8.15
2023-03-05T17:28:39.548Z,14.15
2023-03-05T17:31:06.220Z,7.03
2023-03-05T17:33:34.069Z,7.32
2023-03-05T17:36:01.164Z,9.00
2023-03-05T17:38:28.132Z,7.63
2023-03-05T17:40:54.634Z,9.35
2023-03-05T17:43:21.980Z,9.50
2023-03-05T17:45:49.000Z,8.55
2023-03-05T17:48:16.156Z,7.20
2023-03-05T17:50:44.940Z,7.03
2023-03-05T17:53:12.226Z,7.57
2023-03-05T17:55:39.385Z,10.00
2023-03-05T17:58:06.071Z,10.15
2023-03-05T18:00:32.964Z,8.77
2023-03-05T18:03:26.426Z,11.15
2023-03-05T18:05:59.491Z,9.98
2023-03-05T18:08:26.060Z,14.63
2023-03-05T18:10:54.208Z,9.13
2023-03-05T18:13:20.741Z,10.52
2023-03-05T18:15:48.457Z,15.05
2023-03-05T18:18:17.110Z,8.93
2023-03-05T18:20:44.271Z,12.07
2023-03-05T18:23:11.601Z,9.38
2023-03-05T18:25:38.247Z,9.82
2023-03-05T18:28:07.624Z,12.00
2023-03-05T18:30:35.089Z,12.95
2023-03-05T18:33:02.092Z,10.73
2023-03-05T18:35:29.765Z,12.57
2023-03-05T18:37:57.086Z,9.38
2023-03-05T18:40:25.884Z,9.48
2023-03-05T18:42:52.738Z,10.00
2023-03-05T18:45:21.748Z,11.27
2023-03-05T18:47:49.125Z,11.50
2023-03-05T18:50:18.553Z,15.85
2023-03-05T18:52:45.931Z,8.27
2023-03-05T18:55:22.149Z,11.23
2023-03-05T18:57:49.369Z,11.10
2023-03-05T19:00:20.259Z,11.23
2023-03-05T19:02:47.363Z,15.63
2023-03-05T19:05:15.165Z,15.68
2023-03-05T19:07:42.279Z,10.45
2023-03-05T19:10:10.765Z,13.18
2023-03-05T19:12:49.169Z,11.65
2023-03-05T19:15:16.980Z,14.05
2023-03-05T19:17:43.731Z,11.77
2023-03-05T19:20:12.634Z,13.88
2023-03-05T19:22:40.164Z,13.13
2023-03-05T19:25:07.545Z,16.05
2023-03-05T19:27:34.478Z,16.73
2023-03-05T19:30:01.499Z,17.08
2023-03-05T19:32:28.378Z,14.10
2023-03-05T19:34:57.077Z,11.18
2023-03-05T19:37:24.850Z,10.20
2023-03-05T19:39:51.998Z,13.40
2023-03-05T19:42:19.151Z,10.75
2023-03-05T19:44:46.250Z,11.52
2023-03-05T19:47:12.988Z,11.55
2023-03-05T19:49:39.984Z,14.82
2023-03-05T19:52:07.033Z,12.35
2023-03-05T19:54:34.150Z,12.88
2023-03-05T19:57:01.009Z,12.75
2023-03-05T19:59:27.720Z,14.07
2023-03-05T20:01:54.409Z,15.75
2023-03-05T20:04:23.228Z,15.55
2023-03-05T20:06:49.818Z,17.30
2023-03-05T20:09:17.603Z,14.60
2023-03-05T20:11:46.433Z,13.43
2023-03-05T20:14:14.505Z,15.18
2023-03-05T20:16:41.880Z,13.43
2023-03-05T20:19:10.992Z,16.23
2023-03-05T20:21:41.106Z,11.48
2023-03-05T20:24:12.261Z,12.75
2023-03-05T20:26:41.321Z,19.05
2023-03-05T20:29:08.775Z,14.10
2023-03-05T20:31:37.161Z,12.75
2023-03-05T20:34:10.802Z,11.55
2023-03-05T20:36:37.779Z,12.02
2023-03-05T20:39:05.587Z,10.80
2023-03-05T20:41:34.564Z,16.08
2023-03-05T20:44:01.120Z,14.38
2023-03-05T20:46:31.442Z,11.63
2023-03-05T20:49:00.562Z,10.75
2023-03-05T20:51:32.174Z,15.52
2023-03-05T20:54:03.233Z,9.27
2023-03-05T20:56:32.464Z,12.70
2023-03-05T20:59:01.226Z,13.25
2023-03-05T21:01:28.307Z,12.93
2023-03-05T21:03:57.126Z,13.60
2023-03-05T21:06:25.172Z,10.30
2023-03-05T21:08:51.748Z,11.57
2023-03-05T21:11:18.910Z,11.13
2023-03-05T21:13:45.874Z,11.55
2023-03-05T21:16:22.654Z,12.10
2023-03-05T21:18:51.044Z,11.07
2023-03-05T21:21:18.912Z,7.82
2023-03-05T21:23:45.937Z,11.50
2023-03-05T21:26:13.512Z,14.45
2023-03-05T21:28:41.094Z,13.70
2023-03-05T21:31:17.954Z,11.90
2023-03-05T21:33:45.095Z,12.45
2023-03-05T21:36:11.889Z,12.13
2023-03-05T21:38:38.620Z,13.18
2023-03-05T21:41:06.054Z,14.88
2023-03-05T21:43:33.370Z,15.35
2023-03-05T21:46:01.216Z,12.27
2023-03-05T21:48:28.012Z,11.60
2023-03-05T21:50:55.430Z,9.95
2023-03-05T21:53:22.302Z,9.57
2023-03-05T21:56:04.232Z,12.80
2023-03-05T21:58:33.681Z,13.63
2023-03-05T22:01:00.446Z,13.32
2023-03-05T22:03:27.999Z,12.48
2023-03-05T22:05:55.009Z,12.13
2023-03-05T22:08:22.929Z,10.93
2023-03-05T22:10:49.831Z,11.43
2023-03-05T22:13:18.024Z,10.65
2023-03-05T22:15:45.728Z,10.73
2023-03-05T22:18:13.487Z,12.63
2023-03-05T22:20:40.798Z,10.63
2023-03-05T22:23:08.095Z,13.18
2023-03-05T22:25:35.110Z,13.80
2023-03-05T22:28:02.273Z,14.80
2023-03-05T22:30:28.867Z,15.15
2023-03-05T22:32:55.641Z,11.55
2023-03-05T22:35:22.721Z,12.88
2023-03-05T22:37:49.305Z,14.60
2023-03-05T22:40:19.412Z,12.07
2023-03-05T22:42:46.934Z,10.32
2023-03-05T22:45:16.901Z,17.05
2023-03-05T22:47:47.433Z,13.07
2023-03-05T22:50:14.314Z,11.48
2023-03-05T22:52:41.135Z,13.93
2023-03-05T22:55:08.173Z,13.77
2023-03-05T22:57:34.980Z,15.20
2023-03-05T23:00:01.615Z,9.60
2023-03-05T23:02:28.227Z,12.45
2023-03-05T23:04:57.754Z,13.45
2023-03-05T23:07:33.632Z,15.30
2023-03-05T23:10:14.360Z,12.75
2023-03-05T23:12:48.428Z,10.48
2023-03-05T23:15:18.287Z,11.77
2023-03-05T23:17:44.984Z,12.00
2023-03-05T23:20:16.688Z,10.93
2023-03-05T23:22:45.140Z,13.98
2023-03-05T23:25:13.599Z,11.77
2023-03-05T23:27:41.007Z,10.88
2023-03-05T23:30:19.625Z,14.15
2023-03-05T23:32:50.740Z,11.00
2023-03-05T23:35:28.581Z,13.37
2023-03-05T23:37:56.847Z,11.70
2023-03-05T23:40:26.461Z,10.63
2023-03-05T23:42:53.798Z,13.18
2023-03-05T23:45:22.041Z,14.88
2023-03-05T23:47:49.248Z,12.07
2023-03-05T23:50:18.804Z,12.07
2023-03-05T23:52:45.926Z,16.92
2023-03-05T23:55:27.584Z,11.18
2023-03-05T23:57:55.314Z,14.27
